sensor_id;sensor_type;location;lat;lon;timestamp;temperature;humidity
27128;DHT22;14660;49.008;8.390;2023-02-18T00:01:26;13.50;99.90
27128;DHT22;14660;49.008;8.390;2023-02-18T00:03:57;13.40;99.90
27128;DHT22;14660;49.008;8.390;2023-02-18T00:06:27;13.50;99.90
27128;DHT22;14660;49.008;8.390;2023-02-18T00:08:55;13.40;99.90
27128;DHT22;14660;49.008;8.390;2023-02-18T00:11:24;13.40;99.90
27128;DHT22;14660;49.008;8.390;2023-02-18T00:13:53;13.40;99.90
27128;DHT22;14660;49.008;8.390;2023-02-18T00:16:21;13.50;99.90
27128;DHT22;14660;49.008;8.390;2023-02-18T00:18:49;13.60;99.90
27128;DHT22;14660;49.008;8.390;2023-02-18T00:21:17;13.50;99.90
27128;DHT22;14660;49.008;8.390;2023-02-18T00:23:44;13.50;99.90
27128;DHT22;14660;49.008;8.390;2023-02-18T00:26:14;13.50;99.90
27128;DHT22;14660;49.008;8.390;2023-02-18T00:28:42;13.60;99.90
27128;DHT22;14660;49.008;8.390;2023-02-18T00:31:13;13.60;99.90
27128;DHT22;14660;49.008;8.390;2023-02-18T00:33:40;13.60;99.90
27128;DHT22;14660;49.008;8.390;2023-02-18T00:36:11;13.50;99.90
27128;DHT22;14660;49.008;8.390;2023-02-18T00:38:48;13.50;99.90
27128;DHT22;14660;49.008;8.390;2023-02-18T00:41:16;13.40;99.90
27128;DHT22;14660;49.008;8.390;2023-02-18T00:43:43;13.40;99.90
27128;DHT22;14660;49.008;8.390;2023-02-18T00:46:10;13.40;99.90
27128;DHT22;14660;49.008;8.390;2023-02-18T00:48:37;13.40;99.90
27128;DHT22;14660;49.008;8.390;2023-02-18T00:51:06;13.40;99.90
27128;DHT22;14660;49.008;8.390;2023-02-18T00:53:35;13.50;99.90
27128;DHT22;14660;49.008;8.390;2023-02-18T00:56:04;13.50;99.90
27128;DHT22;14660;49.008;8.390;2023-02-18T00:58:30;13.40;99.90
27128;DHT22;14660;49.008;8.390;2023-02-18T01:00:57;13.50;99.90
27128;DHT22;14660;49.008;8.390;2023-02-18T01:03:24;13.40;99.90
27128;DHT22;14660;49.008;8.390;2023-02-18T01:05:51;13.40;99.90
27128;DHT22;14660;49.008;8.390;2023-02-18T01:08:28;13.40;99.90
27128;DHT22;14660;49.008;8.390;2023-02-18T01:10:57;13.40;99.90
27128;DHT22;14660;49.008;8.390;2023-02-18T01:13:25;13.40;99.90
27128;DHT22;14660;49.008;8.390;2023-02-18T01:15:51;13.30;99.90
27128;DHT22;14660;49.008;8.390;2023-02-18T01:18:19;13.40;99.90
27128;DHT22;14660;49.008;8.390;2023-02-18T01:20:46;13.40;99.90
27128;DHT22;14660;49.008;8.390;2023-02-18T01:23:14;13.50;99.90
27128;DHT22;14660;49.008;8.390;2023-02-18T01:25:41;13.60;99.90
27128;DHT22;14660;49.008;8.390;2023-02-18T01:28:09;13.50;99.90
27128;DHT22;14660;49.008;8.390;2023-02-18T01:30:36;13.50;99.90
27128;DHT22;14660;49.008;8.390;2023-02-18T01:33:04;13.50;99.90
27128;DHT22;14660;49.008;8.390;2023-02-18T01:35:31;13.40;99.90
27128;DHT22;14660;49.008;8.390;2023-02-18T01:37:59;13.30;99.90
27128;DHT22;14660;49.008;8.390;2023-02-18T01:40:28;13.30;99.90
27128;DHT22;14660;49.008;8.390;2023-02-18T01:42:55;13.30;99.90
27128;DHT22;14660;49.008;8.390;2023-02-18T01:48:38;13.30;99.90
27128;DHT22;14660;49.008;8.390;2023-02-18T01:51:16;13.40;99.90
27128;DHT22;14660;49.008;8.390;2023-02-18T01:54:09;13.30;99.90
27128;DHT22;14660;49.008;8.390;2023-02-18T01:56:57;13.40;99.90
27128;DHT22;14660;49.008;8.390;2023-02-18T01:59:28;13.30;99.90
27128;DHT22;14660;49.008;8.390;2023-02-18T02:02:00;13.30;99.90
27128;DHT22;14660;49.008;8.390;2023-02-18T02:04:27;13.30;99.90
27128;DHT22;14660;49.008;8.390;2023-02-18T02:06:54;13.30;99.90
27128;DHT22;14660;49.008;8.390;2023-02-18T02:09:32;13.40;99.90
27128;DHT22;14660;49.008;8.390;2023-02-18T02:15:23;13.20;99.90
27128;DHT22;14660;49.008;8.390;2023-02-18T02:24:28;13.20;99.90
27128;DHT22;14660;49.008;8.390;2023-02-18T02:27:22;13.20;99.90
27128;DHT22;14660;49.008;8.390;2023-02-18T02:42:12;13.10;99.90
27128;DHT22;14660;49.008;8.390;2023-02-18T02:45:04;13.10;99.90
27128;DHT22;14660;49.008;8.390;2023-02-18T02:53:30;13.10;99.90
27128;DHT22;14660;49.008;8.390;2023-02-18T02:56:01;13.10;99.90
27128;DHT22;14660;49.008;8.390;2023-02-18T02:58:29;13.00;99.90
27128;DHT22;14660;49.008;8.390;2023-02-18T03:01:32;13.00;99.90
27128;DHT22;14660;49.008;8.390;2023-02-18T03:13:46;13.10;99.90
27128;DHT22;14660;49.008;8.390;2023-02-18T03:19:41;12.90;99.90
27128;DHT22;14660;49.008;8.390;2023-02-18T03:22:31;13.10;99.90
27128;DHT22;14660;49.008;8.390;2023-02-18T03:25:03;13.00;99.90
27128;DHT22;14660;49.008;8.390;2023-02-18T03:27:34;13.00;99.90
27128;DHT22;14660;49.008;8.390;2023-02-18T03:30:24;13.00;99.90
27128;DHT22;14660;49.008;8.390;2023-02-18T03:32:57;13.00;99.90
27128;DHT22;14660;49.008;8.390;2023-02-18T03:35:26;13.00;99.90
27128;DHT22;14660;49.008;8.390;2023-02-18T03:40:59;13.10;99.90
27128;DHT22;14660;49.008;8.390;2023-02-18T03:43:25;13.10;99.90
27128;DHT22;14660;49.008;8.390;2023-02-18T03:45:52;13.10;99.90
27128;DHT22;14660;49.008;8.390;2023-02-18T03:48:20;13.00;99.90
27128;DHT22;14660;49.008;8.390;2023-02-18T03:50:48;13.00;99.90
27128;DHT22;14660;49.008;8.390;2023-02-18T03:53:14;13.00;99.90
27128;DHT22;14660;49.008;8.390;2023-02-18T03:55:41;13.10;99.90
27128;DHT22;14660;49.008;8.390;2023-02-18T03:58:08;13.10;99.90
27128;DHT22;14660;49.008;8.390;2023-02-18T04:00:34;13.10;99.90
27128;DHT22;14660;49.008;8.390;2023-02-18T04:03:03;13.20;99.90
27128;DHT22;14660;49.008;8.390;2023-02-18T04:05:31;13.10;99.90
27128;DHT22;14660;49.008;8.390;2023-02-18T04:07:58;13.20;99.90
27128;DHT22;14660;49.008;8.390;2023-02-18T04:10:23;13.10;99.90
27128;DHT22;14660;49.008;8.390;2023-02-18T04:12:50;13.10;99.90
27128;DHT22;14660;49.008;8.390;2023-02-18T04:15:19;13.10;99.90
27128;DHT22;14660;49.008;8.390;2023-02-18T04:17:46;13.10;99.90
27128;DHT22;14660;49.008;8.390;2023-02-18T04:20:12;13.00;99.90
27128;DHT22;14660;49.008;8.390;2023-02-18T04:22:39;13.10;99.90
27128;DHT22;14660;49.008;8.390;2023-02-18T04:25:07;13.10;99.90
27128;DHT22;14660;49.008;8.390;2023-02-18T04:27:34;13.10;99.90
27128;DHT22;14660;49.008;8.390;2023-02-18T04:30:02;13.00;99.90
27128;DHT22;14660;49.008;8.390;2023-02-18T04:32:30;13.00;99.90
27128;DHT22;14660;49.008;8.390;2023-02-18T04:34:57;13.00;99.90
27128;DHT22;14660;49.008;8.390;2023-02-18T04:37:24;12.90;99.90
27128;DHT22;14660;49.008;8.390;2023-02-18T04:39:51;12.90;99.90
27128;DHT22;14660;49.008;8.390;2023-02-18T04:42:17;13.00;99.90
27128;DHT22;14660;49.008;8.390;2023-02-18T04:44:44;13.00;99.90
27128;DHT22;14660;49.008;8.390;2023-02-18T04:47:11;12.90;99.90
27128;DHT22;14660;49.008;8.390;2023-02-18T04:49:38;12.90;99.90
27128;DHT22;14660;49.008;8.390;2023-02-18T04:52:05;12.90;99.90
27128;DHT22;14660;49.008;8.390;2023-02-18T04:54:32;12.90;99.90
27128;DHT22;14660;49.008;8.390;2023-02-18T04:56:59;12.90;99.90
27128;DHT22;14660;49.008;8.390;2023-02-18T04:59:26;12.90;99.90
27128;DHT22;14660;49.008;8.390;2023-02-18T05:01:55;12.90;99.90
27128;DHT22;14660;49.008;8.390;2023-02-18T05:04:21;12.90;99.90
27128;DHT22;14660;49.008;8.390;2023-02-18T05:06:48;12.90;99.90
27128;DHT22;14660;49.008;8.390;2023-02-18T05:09:16;12.90;99.90
27128;DHT22;14660;49.008;8.390;2023-02-18T05:11:43;13.00;99.90
27128;DHT22;14660;49.008;8.390;2023-02-18T05:14:10;12.90;99.90
27128;DHT22;14660;49.008;8.390;2023-02-18T05:16:36;12.90;99.90
27128;DHT22;14660;49.008;8.390;2023-02-18T05:19:03;12.90;99.90
27128;DHT22;14660;49.008;8.390;2023-02-18T05:21:30;12.90;99.90
27128;DHT22;14660;49.008;8.390;2023-02-18T05:23:57;12.90;99.90
27128;DHT22;14660;49.008;8.390;2023-02-18T05:26:24;12.90;99.90
27128;DHT22;14660;49.008;8.390;2023-02-18T05:28:50;12.90;99.90
27128;DHT22;14660;49.008;8.390;2023-02-18T05:31:17;12.90;99.90
27128;DHT22;14660;49.008;8.390;2023-02-18T05:33:44;12.90;99.90
27128;DHT22;14660;49.008;8.390;2023-02-18T05:36:11;12.90;99.90
27128;DHT22;14660;49.008;8.390;2023-02-18T05:38:38;12.80;99.90
27128;DHT22;14660;49.008;8.390;2023-02-18T05:41:04;12.80;99.90
27128;DHT22;14660;49.008;8.390;2023-02-18T05:43:31;12.80;99.90
27128;DHT22;14660;49.008;8.390;2023-02-18T05:46:17;12.80;99.90
27128;DHT22;14660;49.008;8.390;2023-02-18T05:48:43;12.80;99.90
27128;DHT22;14660;49.008;8.390;2023-02-18T05:51:09;12.90;99.90
27128;DHT22;14660;49.008;8.390;2023-02-18T05:53:36;12.90;99.90
27128;DHT22;14660;49.008;8.390;2023-02-18T05:56:03;12.90;99.90
27128;DHT22;14660;49.008;8.390;2023-02-18T05:58:29;12.90;99.90
27128;DHT22;14660;49.008;8.390;2023-02-18T06:00:56;12.90;99.90
27128;DHT22;14660;49.008;8.390;2023-02-18T06:03:23;12.80;99.90
27128;DHT22;14660;49.008;8.390;2023-02-18T06:05:50;12.80;99.90
27128;DHT22;14660;49.008;8.390;2023-02-18T06:08:17;12.90;99.90
27128;DHT22;14660;49.008;8.390;2023-02-18T06:10:46;12.90;99.90
27128;DHT22;14660;49.008;8.390;2023-02-18T06:13:13;12.80;99.90
27128;DHT22;14660;49.008;8.390;2023-02-18T06:15:40;12.80;99.90
27128;DHT22;14660;49.008;8.390;2023-02-18T06:18:08;12.90;99.90
27128;DHT22;14660;49.008;8.390;2023-02-18T06:20:35;12.90;99.90
27128;DHT22;14660;49.008;8.390;2023-02-18T06:23:01;12.90;99.90
27128;DHT22;14660;49.008;8.390;2023-02-18T06:25:28;13.00;99.90
27128;DHT22;14660;49.008;8.390;2023-02-18T06:27:55;12.90;99.90
27128;DHT22;14660;49.008;8.390;2023-02-18T06:30:22;12.90;99.90
27128;DHT22;14660;49.008;8.390;2023-02-18T06:32:49;13.00;99.90
27128;DHT22;14660;49.008;8.390;2023-02-18T06:35:17;12.90;99.90
27128;DHT22;14660;49.008;8.390;2023-02-18T06:37:44;12.90;99.90
27128;DHT22;14660;49.008;8.390;2023-02-18T06:40:11;13.00;99.90
27128;DHT22;14660;49.008;8.390;2023-02-18T06:42:38;13.00;99.90
27128;DHT22;14660;49.008;8.390;2023-02-18T06:45:05;13.00;99.90
27128;DHT22;14660;49.008;8.390;2023-02-18T06:47:33;13.10;99.90
27128;DHT22;14660;49.008;8.390;2023-02-18T06:50:00;13.10;99.90
27128;DHT22;14660;49.008;8.390;2023-02-18T06:52:26;13.00;99.90
27128;DHT22;14660;49.008;8.390;2023-02-18T06:54:55;13.00;99.90
27128;DHT22;14660;49.008;8.390;2023-02-18T06:57:22;13.00;99.90
27128;DHT22;14660;49.008;8.390;2023-02-18T06:59:53;13.00;99.90
27128;DHT22;14660;49.008;8.390;2023-02-18T07:02:21;13.10;99.90
27128;DHT22;14660;49.008;8.390;2023-02-18T07:04:48;13.10;99.90
27128;DHT22;14660;49.008;8.390;2023-02-18T07:07:14;13.10;99.90
27128;DHT22;14660;49.008;8.390;2023-02-18T07:09:41;13.10;99.90
27128;DHT22;14660;49.008;8.390;2023-02-18T07:12:08;13.10;99.90
27128;DHT22;14660;49.008;8.390;2023-02-18T07:14:36;13.20;99.90
27128;DHT22;14660;49.008;8.390;2023-02-18T07:17:03;13.10;99.90
27128;DHT22;14660;49.008;8.390;2023-02-18T07:19:29;13.10;99.90
27128;DHT22;14660;49.008;8.390;2023-02-18T07:21:56;13.20;99.90
27128;DHT22;14660;49.008;8.390;2023-02-18T07:24:23;13.30;99.90
27128;DHT22;14660;49.008;8.390;2023-02-18T07:26:50;13.30;99.90
27128;DHT22;14660;49.008;8.390;2023-02-18T07:29:17;13.30;99.90
27128;DHT22;14660;49.008;8.390;2023-02-18T07:31:45;13.30;99.90
27128;DHT22;14660;49.008;8.390;2023-02-18T07:34:12;13.40;99.90
27128;DHT22;14660;49.008;8.390;2023-02-18T07:36:39;13.40;99.90
27128;DHT22;14660;49.008;8.390;2023-02-18T07:39:06;13.40;99.90
27128;DHT22;14660;49.008;8.390;2023-02-18T07:41:32;13.40;99.90
27128;DHT22;14660;49.008;8.390;2023-02-18T07:44:02;13.40;99.90
27128;DHT22;14660;49.008;8.390;2023-02-18T07:46:29;13.50;99.90
27128;DHT22;14660;49.008;8.390;2023-02-18T07:48:56;13.50;99.90
27128;DHT22;14660;49.008;8.390;2023-02-18T07:51:23;13.50;99.90
27128;DHT22;14660;49.008;8.390;2023-02-18T07:53:50;13.60;99.90
27128;DHT22;14660;49.008;8.390;2023-02-18T07:56:17;13.60;99.90
27128;DHT22;14660;49.008;8.390;2023-02-18T07:58:44;13.60;99.90
27128;DHT22;14660;49.008;8.390;2023-02-18T08:01:22;13.60;99.90
27128;DHT22;14660;49.008;8.390;2023-02-18T08:03:48;13.60;99.90
27128;DHT22;14660;49.008;8.390;2023-02-18T08:06:25;13.70;99.90
27128;DHT22;14660;49.008;8.390;2023-02-18T08:08:53;13.80;99.90
27128;DHT22;14660;49.008;8.390;2023-02-18T08:11:21;13.80;99.90
27128;DHT22;14660;49.008;8.390;2023-02-18T08:13:49;13.80;99.90
27128;DHT22;14660;49.008;8.390;2023-02-18T08:16:20;13.80;99.90
27128;DHT22;14660;49.008;8.390;2023-02-18T08:18:53;13.80;99.90
27128;DHT22;14660;49.008;8.390;2023-02-18T08:21:23;13.90;99.90
27128;DHT22;14660;49.008;8.390;2023-02-18T08:23:52;14.00;99.90
27128;DHT22;14660;49.008;8.390;2023-02-18T08:26:20;13.90;99.90
27128;DHT22;14660;49.008;8.390;2023-02-18T08:28:46;14.00;99.90
27128;DHT22;14660;49.008;8.390;2023-02-18T08:33:45;14.10;99.90
27128;DHT22;14660;49.008;8.390;2023-02-18T08:36:12;14.20;99.90
27128;DHT22;14660;49.008;8.390;2023-02-18T08:38:39;14.20;99.90
27128;DHT22;14660;49.008;8.390;2023-02-18T08:41:07;14.20;99.90
27128;DHT22;14660;49.008;8.390;2023-02-18T08:43:35;14.10;99.90
27128;DHT22;14660;49.008;8.390;2023-02-18T08:46:02;14.20;99.90
27128;DHT22;14660;49.008;8.390;2023-02-18T08:48:29;14.30;99.90
27128;DHT22;14660;49.008;8.390;2023-02-18T08:50:55;14.30;99.90
27128;DHT22;14660;49.008;8.390;2023-02-18T08:53:22;14.40;99.90
27128;DHT22;14660;49.008;8.390;2023-02-18T08:55:49;14.40;99.90
27128;DHT22;14660;49.008;8.390;2023-02-18T08:58:16;14.50;99.90
27128;DHT22;14660;49.008;8.390;2023-02-18T09:00:45;14.50;99.90
27128;DHT22;14660;49.008;8.390;2023-02-18T09:03:15;14.60;99.90
27128;DHT22;14660;49.008;8.390;2023-02-18T09:05:42;14.50;99.90
27128;DHT22;14660;49.008;8.390;2023-02-18T09:08:09;14.50;99.90
27128;DHT22;14660;49.008;8.390;2023-02-18T09:10:36;14.40;99.90
27128;DHT22;14660;49.008;8.390;2023-02-18T09:13:05;14.40;99.90
27128;DHT22;14660;49.008;8.390;2023-02-18T09:15:32;14.40;99.90
27128;DHT22;14660;49.008;8.390;2023-02-18T09:17:59;14.40;99.90
27128;DHT22;14660;49.008;8.390;2023-02-18T09:20:26;14.40;99.90
27128;DHT22;14660;49.008;8.390;2023-02-18T09:22:52;14.40;99.90
27128;DHT22;14660;49.008;8.390;2023-02-18T09:25:19;14.40;99.90
27128;DHT22;14660;49.008;8.390;2023-02-18T09:27:46;14.50;99.90
27128;DHT22;14660;49.008;8.390;2023-02-18T09:30:16;14.50;99.90
27128;DHT22;14660;49.008;8.390;2023-02-18T09:32:43;14.60;99.90
27128;DHT22;14660;49.008;8.390;2023-02-18T09:35:10;14.60;99.90
27128;DHT22;14660;49.008;8.390;2023-02-18T09:37:37;14.70;99.90
27128;DHT22;14660;49.008;8.390;2023-02-18T09:40:05;14.70;99.90
27128;DHT22;14660;49.008;8.390;2023-02-18T09:42:34;14.70;99.90
27128;DHT22;14660;49.008;8.390;2023-02-18T09:45:09;14.70;99.90
27128;DHT22;14660;49.008;8.390;2023-02-18T09:47:56;14.60;99.90
27128;DHT22;14660;49.008;8.390;2023-02-18T09:50:33;14.60;99.90
27128;DHT22;14660;49.008;8.390;2023-02-18T09:53:02;14.60;99.90
27128;DHT22;14660;49.008;8.390;2023-02-18T09:55:47;14.60;99.90
27128;DHT22;14660;49.008;8.390;2023-02-18T09:58:33;14.70;99.90
27128;DHT22;14660;49.008;8.390;2023-02-18T10:01:37;14.70;99.90
27128;DHT22;14660;49.008;8.390;2023-02-18T10:07:04;14.80;99.90
27128;DHT22;14660;49.008;8.390;2023-02-18T10:09:51;14.80;99.90
27128;DHT22;14660;49.008;8.390;2023-02-18T10:12:22;14.80;99.90
27128;DHT22;14660;49.008;8.390;2023-02-18T10:14:54;14.90;99.90
27128;DHT22;14660;49.008;8.390;2023-02-18T10:17:26;14.80;99.90
27128;DHT22;14660;49.008;8.390;2023-02-18T10:19:54;14.80;99.90
27128;DHT22;14660;49.008;8.390;2023-02-18T10:22:25;14.80;99.90
27128;DHT22;14660;49.008;8.390;2023-02-18T10:25:15;14.70;99.90
27128;DHT22;14660;49.008;8.390;2023-02-18T10:27:44;14.70;99.90
27128;DHT22;14660;49.008;8.390;2023-02-18T10:30:32;14.70;99.90
27128;DHT22;14660;49.008;8.390;2023-02-18T10:35:59;14.70;99.90
27128;DHT22;14660;49.008;8.390;2023-02-18T10:52:59;14.90;99.90
27128;DHT22;14660;49.008;8.390;2023-02-18T10:55:40;15.00;99.90
27128;DHT22;14660;49.008;8.390;2023-02-18T10:58:35;14.90;99.90
27128;DHT22;14660;49.008;8.390;2023-02-18T11:01:14;15.00;99.90
27128;DHT22;14660;49.008;8.390;2023-02-18T11:03:44;14.90;99.90
27128;DHT22;14660;49.008;8.390;2023-02-18T11:08:48;15.00;99.90
27128;DHT22;14660;49.008;8.390;2023-02-18T11:11:19;15.00;99.90
27128;DHT22;14660;49.008;8.390;2023-02-18T11:13:57;15.10;99.90
27128;DHT22;14660;49.008;8.390;2023-02-18T11:16:37;15.10;99.90
27128;DHT22;14660;49.008;8.390;2023-02-18T11:19:04;15.30;99.90
27128;DHT22;14660;49.008;8.390;2023-02-18T11:21:37;15.30;99.90
27128;DHT22;14660;49.008;8.390;2023-02-18T11:24:15;15.30;99.90
27128;DHT22;14660;49.008;8.390;2023-02-18T11:26:43;15.50;99.90
27128;DHT22;14660;49.008;8.390;2023-02-18T11:29:29;15.50;99.90
27128;DHT22;14660;49.008;8.390;2023-02-18T11:31:57;15.60;99.90
27128;DHT22;14660;49.008;8.390;2023-02-18T11:34:31;15.60;99.90
27128;DHT22;14660;49.008;8.390;2023-02-18T11:37:19;15.70;99.90
27128;DHT22;14660;49.008;8.390;2023-02-18T11:39:52;15.70;99.90
27128;DHT22;14660;49.008;8.390;2023-02-18T11:42:25;15.70;99.90
27128;DHT22;14660;49.008;8.390;2023-02-18T11:45:01;15.70;99.90
27128;DHT22;14660;49.008;8.390;2023-02-18T11:47:37;15.60;99.90
27128;DHT22;14660;49.008;8.390;2023-02-18T11:50:28;15.60;99.90
27128;DHT22;14660;49.008;8.390;2023-02-18T11:55:56;15.40;99.90
27128;DHT22;14660;49.008;8.390;2023-02-18T11:58:24;15.40;99.90
27128;DHT22;14660;49.008;8.390;2023-02-18T12:00:55;15.40;99.90
27128;DHT22;14660;49.008;8.390;2023-02-18T12:03:53;15.40;99.90
27128;DHT22;14660;49.008;8.390;2023-02-18T12:06:53;15.40;99.90
27128;DHT22;14660;49.008;8.390;2023-02-18T12:09:59;15.20;99.90
27128;DHT22;14660;49.008;8.390;2023-02-18T12:12:47;15.10;99.90
27128;DHT22;14660;49.008;8.390;2023-02-18T12:15:22;15.00;99.90
27128;DHT22;14660;49.008;8.390;2023-02-18T12:27:29;15.00;99.90
27128;DHT22;14660;49.008;8.390;2023-02-18T12:39:20;15.10;99.90
27128;DHT22;14660;49.008;8.390;2023-02-18T12:51:28;15.00;99.90
27128;DHT22;14660;49.008;8.390;2023-02-18T13:03:36;14.80;99.90
27128;DHT22;14660;49.008;8.390;2023-02-18T13:21:19;14.80;99.90
27128;DHT22;14660;49.008;8.390;2023-02-18T13:24:03;14.70;99.90
27128;DHT22;14660;49.008;8.390;2023-02-18T13:26:35;14.70;99.90
27128;DHT22;14660;49.008;8.390;2023-02-18T13:29:45;14.80;99.90
27128;DHT22;14660;49.008;8.390;2023-02-18T13:35:51;14.80;99.90
27128;DHT22;14660;49.008;8.390;2023-02-18T13:41:26;14.90;99.90
27128;DHT22;14660;49.008;8.390;2023-02-18T13:43:53;15.00;99.90
27128;DHT22;14660;49.008;8.390;2023-02-18T13:46:21;15.00;99.90
27128;DHT22;14660;49.008;8.390;2023-02-18T13:49:10;15.10;99.90
27128;DHT22;14660;49.008;8.390;2023-02-18T13:51:48;15.30;99.90
27128;DHT22;14660;49.008;8.390;2023-02-18T13:54:36;15.40;99.90
27128;DHT22;14660;49.008;8.390;2023-02-18T13:57:18;15.40;99.90
27128;DHT22;14660;49.008;8.390;2023-02-18T14:00:04;15.50;99.90
27128;DHT22;14660;49.008;8.390;2023-02-18T14:02:55;15.50;99.90
27128;DHT22;14660;49.008;8.390;2023-02-18T14:05:24;15.50;99.90
27128;DHT22;14660;49.008;8.390;2023-02-18T14:08:35;15.50;99.90
27128;DHT22;14660;49.008;8.390;2023-02-18T14:23:37;15.50;99.90
27128;DHT22;14660;49.008;8.390;2023-02-18T14:29:10;15.50;99.90
27128;DHT22;14660;49.008;8.390;2023-02-18T14:31:47;15.50;99.90
27128;DHT22;14660;49.008;8.390;2023-02-18T14:52:12;15.40;99.90
27128;DHT22;14660;49.008;8.390;2023-02-18T14:54:42;15.30;99.90
27128;DHT22;14660;49.008;8.390;2023-02-18T14:57:15;15.20;99.90
27128;DHT22;14660;49.008;8.390;2023-02-18T14:59:43;15.20;99.90
27128;DHT22;14660;49.008;8.390;2023-02-18T15:02:21;15.20;99.90
27128;DHT22;14660;49.008;8.390;2023-02-18T15:04:49;15.20;99.90
27128;DHT22;14660;49.008;8.390;2023-02-18T15:07:18;15.10;99.90
27128;DHT22;14660;49.008;8.390;2023-02-18T15:09:47;15.00;99.90
27128;DHT22;14660;49.008;8.390;2023-02-18T15:12:19;15.00;99.90
27128;DHT22;14660;49.008;8.390;2023-02-18T15:14:48;15.10;99.90
27128;DHT22;14660;49.008;8.390;2023-02-18T15:17:20;15.00;99.90
27128;DHT22;14660;49.008;8.390;2023-02-18T15:19:56;15.00;99.90
27128;DHT22;14660;49.008;8.390;2023-02-18T15:22:25;15.00;99.90
27128;DHT22;14660;49.008;8.390;2023-02-18T15:24:56;14.90;99.90
27128;DHT22;14660;49.008;8.390;2023-02-18T15:27:31;14.90;99.90
27128;DHT22;14660;49.008;8.390;2023-02-18T15:33:10;15.00;99.90
27128;DHT22;14660;49.008;8.390;2023-02-18T15:35:40;15.10;99.90
27128;DHT22;14660;49.008;8.390;2023-02-18T15:38:18;15.00;99.90
27128;DHT22;14660;49.008;8.390;2023-02-18T15:40:51;14.80;99.90
27128;DHT22;14660;49.008;8.390;2023-02-18T15:43:23;14.90;99.90
27128;DHT22;14660;49.008;8.390;2023-02-18T15:45:58;14.80;99.90
27128;DHT22;14660;49.008;8.390;2023-02-18T15:48:44;14.70;99.90
27128;DHT22;14660;49.008;8.390;2023-02-18T15:51:15;14.80;99.90
27128;DHT22;14660;49.008;8.390;2023-02-18T15:53:45;14.80;99.90
27128;DHT22;14660;49.008;8.390;2023-02-18T15:56:38;14.70;99.90
27128;DHT22;14660;49.008;8.390;2023-02-18T15:59:26;14.70;99.90
27128;DHT22;14660;49.008;8.390;2023-02-18T16:02:20;14.70;99.90
27128;DHT22;14660;49.008;8.390;2023-02-18T16:05:14;14.70;99.90
27128;DHT22;14660;49.008;8.390;2023-02-18T16:07:56;14.60;99.90
27128;DHT22;14660;49.008;8.390;2023-02-18T16:10:43;14.70;99.90
27128;DHT22;14660;49.008;8.390;2023-02-18T16:13:16;14.70;99.90
27128;DHT22;14660;49.008;8.390;2023-02-18T16:15:44;14.70;99.90
27128;DHT22;14660;49.008;8.390;2023-02-18T16:24:02;14.60;99.90
27128;DHT22;14660;49.008;8.390;2023-02-18T16:26:49;14.50;99.90
27128;DHT22;14660;49.008;8.390;2023-02-18T16:32:08;14.50;99.90
27128;DHT22;14660;49.008;8.390;2023-02-18T16:34:35;14.30;99.90
27128;DHT22;14660;49.008;8.390;2023-02-18T16:37:02;14.30;99.90
27128;DHT22;14660;49.008;8.390;2023-02-18T16:39:48;14.20;99.90
27128;DHT22;14660;49.008;8.390;2023-02-18T16:42:17;14.20;99.90
27128;DHT22;14660;49.008;8.390;2023-02-18T16:44:44;14.10;99.90
27128;DHT22;14660;49.008;8.390;2023-02-18T16:47:14;14.10;99.90
27128;DHT22;14660;49.008;8.390;2023-02-18T16:49:43;14.00;99.90
27128;DHT22;14660;49.008;8.390;2023-02-18T16:52:12;14.10;99.90
27128;DHT22;14660;49.008;8.390;2023-02-18T16:54:41;14.00;99.90
27128;DHT22;14660;49.008;8.390;2023-02-18T16:57:09;13.90;99.90
27128;DHT22;14660;49.008;8.390;2023-02-18T16:59:38;13.80;99.90
27128;DHT22;14660;49.008;8.390;2023-02-18T17:02:17;13.90;99.90
27128;DHT22;14660;49.008;8.390;2023-02-18T17:04:45;13.80;99.90
27128;DHT22;14660;49.008;8.390;2023-02-18T17:07:12;13.80;99.90
27128;DHT22;14660;49.008;8.390;2023-02-18T17:09:39;13.90;99.90
27128;DHT22;14660;49.008;8.390;2023-02-18T17:12:05;13.80;99.90
27128;DHT22;14660;49.008;8.390;2023-02-18T17:14:32;13.90;99.90
27128;DHT22;14660;49.008;8.390;2023-02-18T17:17:10;13.80;99.90
27128;DHT22;14660;49.008;8.390;2023-02-18T17:19:39;13.80;99.90
27128;DHT22;14660;49.008;8.390;2023-02-18T17:22:08;13.70;99.90
27128;DHT22;14660;49.008;8.390;2023-02-18T17:24:35;13.60;99.90
27128;DHT22;14660;49.008;8.390;2023-02-18T17:27:05;13.60;99.90
27128;DHT22;14660;49.008;8.390;2023-02-18T17:29:31;13.50;99.90
27128;DHT22;14660;49.008;8.390;2023-02-18T17:31:57;13.50;99.90
27128;DHT22;14660;49.008;8.390;2023-02-18T17:34:28;13.40;99.90
27128;DHT22;14660;49.008;8.390;2023-02-18T17:36:55;13.50;99.90
27128;DHT22;14660;49.008;8.390;2023-02-18T17:39:22;13.50;99.90
27128;DHT22;14660;49.008;8.390;2023-02-18T17:41:50;13.40;99.90
27128;DHT22;14660;49.008;8.390;2023-02-18T17:44:20;13.50;99.90
27128;DHT22;14660;49.008;8.390;2023-02-18T17:46:49;13.40;99.90
27128;DHT22;14660;49.008;8.390;2023-02-18T17:49:16;13.40;99.90
27128;DHT22;14660;49.008;8.390;2023-02-18T17:51:43;13.40;99.90
27128;DHT22;14660;49.008;8.390;2023-02-18T17:54:12;13.30;99.90
27128;DHT22;14660;49.008;8.390;2023-02-18T17:56:42;13.30;99.90
27128;DHT22;14660;49.008;8.390;2023-02-18T17:59:09;13.40;99.90
27128;DHT22;14660;49.008;8.390;2023-02-18T18:01:36;13.50;99.90
27128;DHT22;14660;49.008;8.390;2023-02-18T18:04:08;13.50;99.90
27128;DHT22;14660;49.008;8.390;2023-02-18T18:06:36;13.50;99.90
27128;DHT22;14660;49.008;8.390;2023-02-18T18:09:02;13.40;99.90
27128;DHT22;14660;49.008;8.390;2023-02-18T18:11:29;13.40;99.90
27128;DHT22;14660;49.008;8.390;2023-02-18T18:13:58;13.30;99.90
27128;DHT22;14660;49.008;8.390;2023-02-18T18:16:26;13.30;99.90
27128;DHT22;14660;49.008;8.390;2023-02-18T18:18:52;13.30;99.90
27128;DHT22;14660;49.008;8.390;2023-02-18T18:21:37;13.40;99.90
27128;DHT22;14660;49.008;8.390;2023-02-18T18:24:05;13.30;99.90
27128;DHT22;14660;49.008;8.390;2023-02-18T18:26:32;13.30;99.90
27128;DHT22;14660;49.008;8.390;2023-02-18T18:28:58;13.30;99.90
27128;DHT22;14660;49.008;8.390;2023-02-18T18:31:25;13.40;99.90
27128;DHT22;14660;49.008;8.390;2023-02-18T18:33:52;13.30;99.90
27128;DHT22;14660;49.008;8.390;2023-02-18T18:36:19;13.30;99.90
27128;DHT22;14660;49.008;8.390;2023-02-18T18:38:47;13.20;99.90
27128;DHT22;14660;49.008;8.390;2023-02-18T18:41:17;13.30;99.90
27128;DHT22;14660;49.008;8.390;2023-02-18T18:43:44;13.20;99.90
27128;DHT22;14660;49.008;8.390;2023-02-18T18:46:11;13.20;99.90
27128;DHT22;14660;49.008;8.390;2023-02-18T18:48:38;13.30;99.90
27128;DHT22;14660;49.008;8.390;2023-02-18T18:51:04;13.10;99.90
27128;DHT22;14660;49.008;8.390;2023-02-18T18:53:33;13.30;99.90
27128;DHT22;14660;49.008;8.390;2023-02-18T18:56:04;13.10;99.90